Time;durP1;ratioP1;P1;durP2;ratioP2;P2;SDS_P1;SDS_P2;PMS_P1;PMS_P2;Temp;Humidity;BMP_temperature;BMP_pressure;BME280_temperature;BME280_humidity;BME280_pressure;Samples;Min_cycle;Max_cycle;Signal;HPM_P1;HPM_P2
2024/01/04 00:00:52;;;;;;;2.03;0.73;;;7.60;99.90;;;;;;5074893;28;20207;-82
2024/01/04 00:03:19;;;;;;;1.90;0.80;;;7.60;99.90;;;;;;5074823;28;20182;-83
2024/01/04 00:05:46;;;;;;;1.90;0.70;;;7.60;99.90;;;;;;5073515;28;20206;-82
2024/01/04 00:08:11;;;;;;;1.07;0.70;;;7.60;99.90;;;;;;5074931;28;20292;-82
2024/01/04 00:10:37;;;;;;;1.43;0.60;;;7.50;99.90;;;;;;5073577;28;20186;-82
2024/01/04 00:13:02;;;;;;;1.50;0.80;;;7.50;99.90;;;;;;5074977;28;20630;-82
2024/01/04 00:15:28;;;;;;;1.00;0.73;;;7.50;99.90;;;;;;5074792;28;20182;-82
2024/01/04 00:17:54;;;;;;;0.50;0.50;;;7.50;99.90;;;;;;5074510;28;20198;-84
2024/01/04 00:20:19;;;;;;;1.57;1.00;;;7.50;99.90;;;;;;5073296;28;20254;-82
2024/01/04 00:22:45;;;;;;;2.83;0.90;;;7.50;99.90;;;;;;5073419;28;20184;-82
2024/01/04 00:25:11;;;;;;;1.13;0.70;;;7.50;99.90;;;;;;5073636;28;20202;-82
2024/01/04 00:27:37;;;;;;;1.77;1.00;;;7.50;99.90;;;;;;5074678;28;20215;-82
2024/01/04 00:30:02;;;;;;;1.27;0.90;;;7.40;99.90;;;;;;5072986;28;20224;-82
2024/01/04 00:32:29;;;;;;;1.40;0.70;;;7.40;99.90;;;;;;5073157;28;20178;-82
2024/01/04 00:34:54;;;;;;;1.17;0.93;;;7.40;99.90;;;;;;5074576;28;20178;-82
2024/01/04 00:37:20;;;;;;;1.20;0.80;;;7.50;99.90;;;;;;5074490;28;20177;-82
2024/01/04 00:39:46;;;;;;;0.73;0.60;;;7.50;99.90;;;;;;5073148;28;20218;-82
2024/01/04 00:42:11;;;;;;;1.10;0.60;;;7.40;99.90;;;;;;5072810;28;20206;-82
2024/01/04 00:44:37;;;;;;;0.67;0.60;;;7.40;99.90;;;;;;5074347;28;20207;-82
2024/01/04 00:47:03;;;;;;;0.83;0.40;;;7.40;99.90;;;;;;5074159;28;20173;-83
2024/01/04 00:49:32;;;;;;;1.50;0.67;;;7.40;99.90;;;;;;5074283;28;20222;-82
2024/01/04 00:51:58;;;;;;;0.60;0.50;;;7.40;99.90;;;;;;5074196;28;20166;-82
2024/01/04 00:54:23;;;;;;;0.80;0.60;;;7.40;99.90;;;;;;5074025;28;20168;-82
2024/01/04 00:56:49;;;;;;;0.97;0.67;;;7.40;99.90;;;;;;5073922;28;20183;-83
2024/01/04 00:59:14;;;;;;;1.53;0.60;;;7.40;99.90;;;;;;5073853;28;20237;-82
2024/01/04 01:01:40;;;;;;;0.73;0.63;;;7.50;99.90;;;;;;5073734;28;20673;-82
2024/01/04 01:04:05;;;;;;;1.37;0.60;;;7.50;99.90;;;;;;5074039;28;20542;-82
2024/01/04 01:06:31;;;;;;;1.60;0.70;;;7.50;99.90;;;;;;5073930;28;20196;-83
2024/01/04 01:08:56;;;;;;;0.60;0.50;;;7.50;99.90;;;;;;5072355;28;20209;-82
2024/01/04 01:11:22;;;;;;;1.50;0.70;;;7.50;99.90;;;;;;5073448;28;20178;-82
2024/01/04 01:13:47;;;;;;;0.77;0.60;;;7.50;99.90;;;;;;5073656;28;20174;-82
2024/01/04 01:16:14;;;;;;;1.70;0.50;;;7.40;99.90;;;;;;5073365;28;20227;-82
2024/01/04 01:18:40;;;;;;;2.17;0.90;;;7.50;99.90;;;;;;5073524;28;20194;-84
2024/01/04 01:21:06;;;;;;;1.00;0.70;;;7.40;99.90;;;;;;5073487;28;20170;-84
2024/01/04 01:23:31;;;;;;;0.67;0.67;;;7.40;99.90;;;;;;5073571;28;20203;-82
2024/01/04 01:25:57;;;;;;;1.40;0.63;;;7.40;99.90;;;;;;5070786;28;20290;-82
2024/01/04 01:28:23;;;;;;;2.60;0.90;;;7.40;99.90;;;;;;5067461;28;20604;-82
2024/01/04 01:30:49;;;;;;;1.17;0.60;;;7.40;99.90;;;;;;5071648;28;20169;-82
2024/01/04 01:33:15;;;;;;;0.67;0.67;;;7.40;99.90;;;;;;5072138;28;20183;-82
2024/01/04 01:35:40;;;;;;;0.70;0.60;;;7.40;99.90;;;;;;5073430;28;20208;-82
2024/01/04 01:38:06;;;;;;;1.03;0.80;;;7.40;99.90;;;;;;5073020;28;20308;-82
2024/01/04 01:40:31;;;;;;;1.03;0.77;;;7.40;99.90;;;;;;5071820;28;20192;-82
2024/01/04 01:42:59;;;;;;;1.87;0.77;;;7.40;99.90;;;;;;5073007;28;20207;-82
2024/01/04 01:45:24;;;;;;;1.00;0.50;;;7.50;99.90;;;;;;5072850;28;20192;-82
2024/01/04 01:47:50;;;;;;;1.10;0.67;;;7.50;99.90;;;;;;5072951;28;20697;-82
2024/01/04 01:50:19;;;;;;;0.50;0.50;;;7.50;99.90;;;;;;5071667;28;20169;-82
2024/01/04 01:52:46;;;;;;;2.20;0.70;;;7.40;99.90;;;;;;5071382;28;20668;-82
2024/01/04 01:55:14;;;;;;;1.93;0.70;;;7.40;99.90;;;;;;5073098;28;20179;-82
2024/01/04 01:57:41;;;;;;;0.83;0.50;;;7.40;99.90;;;;;;5071382;28;20194;-82
2024/01/04 02:00:09;;;;;;;0.77;0.77;;;7.40;99.90;;;;;;5072561;28;20173;-82
2024/01/04 02:02:35;;;;;;;1.20;0.50;;;7.40;99.90;;;;;;5072614;28;20195;-82
2024/01/04 02:05:01;;;;;;;1.10;0.50;;;7.30;99.90;;;;;;5072838;28;20198;-82
2024/01/04 02:07:26;;;;;;;0.30;0.30;;;7.40;99.90;;;;;;5071357;28;20169;-82
2024/01/04 02:09:52;;;;;;;0.97;0.60;;;7.40;99.90;;;;;;5072384;28;20182;-82
2024/01/04 02:12:17;;;;;;;0.83;0.57;;;7.40;99.90;;;;;;5072478;28;20177;-82
2024/01/04 02:14:44;;;;;;;0.90;0.63;;;7.30;99.90;;;;;;5071277;28;20189;-84
2024/01/04 02:17:10;;;;;;;1.53;0.80;;;7.30;99.90;;;;;;5071361;28;20194;-82
2024/01/04 02:19:36;;;;;;;2.30;1.10;;;7.30;99.90;;;;;;5072448;28;20201;-82
2024/01/04 02:22:02;;;;;;;2.20;1.37;;;7.40;99.90;;;;;;5072348;28;20177;-82
2024/01/04 02:24:28;;;;;;;2.33;1.53;;;7.30;99.90;;;;;;5072437;28;20196;-82
2024/01/04 02:26:53;;;;;;;2.80;1.40;;;7.30;99.90;;;;;;5071056;28;20653;-83
2024/01/04 02:29:19;;;;;;;2.47;1.07;;;7.20;99.90;;;;;;5070854;28;20204;-82
2024/01/04 02:31:47;;;;;;;3.87;1.20;;;7.30;99.90;;;;;;5072319;28;20215;-82
2024/01/04 02:34:12;;;;;;;1.00;0.80;;;7.30;99.90;;;;;;5070999;28;20268;-82
2024/01/04 02:36:38;;;;;;;0.67;0.53;;;7.30;99.90;;;;;;5072006;28;20624;-82
2024/01/04 02:39:04;;;;;;;0.30;0.30;;;7.30;99.90;;;;;;5071709;28;20274;-83
2024/01/04 02:41:35;;;;;;;1.13;0.43;;;7.20;99.90;;;;;;5071916;28;20657;-84
2024/01/04 02:44:01;;;;;;;0.47;0.40;;;7.20;99.90;;;;;;5071040;28;20181;-82
2024/01/04 02:46:26;;;;;;;0.63;0.37;;;7.20;99.90;;;;;;5070864;28;20204;-82
2024/01/04 02:48:52;;;;;;;0.93;0.40;;;7.20;99.90;;;;;;5071528;28;20238;-84
2024/01/04 02:51:17;;;;;;;0.67;0.40;;;7.20;99.90;;;;;;5070942;28;20278;-82
2024/01/04 02:53:43;;;;;;;0.50;0.27;;;7.20;99.90;;;;;;5070848;28;20177;-82
2024/01/04 02:56:08;;;;;;;0.30;0.27;;;7.20;99.90;;;;;;5071900;28;20183;-82
2024/01/04 02:58:34;;;;;;;0.60;0.40;;;7.20;99.90;;;;;;5070904;28;20298;-82
2024/01/04 03:01:00;;;;;;;0.13;0.13;;;7.20;99.90;;;;;;5070778;28;20267;-80
2024/01/04 03:03:26;;;;;;;0.33;0.10;;;7.20;99.90;;;;;;5072302;28;20177;-82
2024/01/04 03:05:51;;;;;;;0.17;0.10;;;7.20;99.90;;;;;;5070605;28;20219;-82
2024/01/04 03:08:17;;;;;;;0.70;0.10;;;7.20;99.90;;;;;;5070495;28;20193;-82
2024/01/04 03:10:42;;;;;;;0.23;0.23;;;7.20;99.90;;;;;;5070515;28;20169;-81
2024/01/04 03:13:08;;;;;;;0.23;0.20;;;7.10;99.90;;;;;;5071822;28;20665;-82
2024/01/04 03:15:33;;;;;;;0.40;0.27;;;7.10;99.90;;;;;;5070328;28;20180;-79
2024/01/04 03:17:59;;;;;;;0.10;0.10;;;7.10;99.90;;;;;;5070386;28;20290;-79
2024/01/04 03:20:24;;;;;;;0.30;0.20;;;7.10;99.90;;;;;;5071259;28;20180;-82
2024/01/04 03:22:50;;;;;;;0.30;0.23;;;7.00;99.90;;;;;;5070691;28;20653;-82
2024/01/04 03:25:16;;;;;;;0.07;0.07;;;7.00;99.90;;;;;;5071634;28;20196;-82
2024/01/04 03:27:43;;;;;;;0.20;0.20;;;7.10;99.90;;;;;;5070846;28;20188;-82
2024/01/04 03:30:09;;;;;;;0.30;0.20;;;7.10;99.90;;;;;;5071606;28;20170;-82
2024/01/04 03:32:35;;;;;;;0.10;0.10;;;7.10;99.90;;;;;;5070410;28;20187;-84
2024/01/04 03:35:01;;;;;;;0.43;0.17;;;7.10;99.90;;;;;;5070351;28;20264;-82
2024/01/04 03:37:26;;;;;;;0.40;0.20;;;7.00;99.90;;;;;;5071467;28;20196;-82
2024/01/04 03:39:53;;;;;;;0.13;0.13;;;7.00;99.90;;;;;;5071310;28;20194;-82
2024/01/04 03:42:19;;;;;;;0.50;0.20;;;7.10;99.90;;;;;;5071636;28;20260;-82
2024/01/04 03:44:44;;;;;;;0.10;0.10;;;7.10;99.90;;;;;;5070145;28;20296;-81
2024/01/04 03:47:10;;;;;;;0.10;0.10;;;7.10;99.90;;;;;;5070315;28;20170;-82
2024/01/04 03:49:36;;;;;;;0.17;0.10;;;7.10;99.90;;;;;;5071528;28;20219;-83
2024/01/04 03:52:02;;;;;;;0.10;0.10;;;7.20;99.90;;;;;;5070099;28;20296;-82
2024/01/04 03:54:27;;;;;;;0.20;0.20;;;7.10;99.90;;;;;;5071544;28;20184;-82
2024/01/04 03:56:54;;;;;;;0.10;0.10;;;7.10;99.90;;;;;;5071260;28;20177;-82
2024/01/04 03:59:20;;;;;;;0.30;0.30;;;7.10;99.90;;;;;;5071422;28;20276;-82
2024/01/04 04:01:45;;;;;;;0.33;0.10;;;7.10;99.90;;;;;;5073182;28;20212;-82
2024/01/04 04:04:12;;;;;;;0.27;0.27;;;7.10;99.90;;;;;;5073619;28;20722;-82
2024/01/04 04:06:38;;;;;;;0.73;0.10;;;7.10;99.90;;;;;;5074698;28;20202;-82
2024/01/04 04:09:06;;;;;;;0.70;0.30;;;7.10;99.90;;;;;;5073288;28;20194;-82
2024/01/04 04:11:32;;;;;;;0.40;0.40;;;7.10;99.90;;;;;;5074598;28;20161;-82
2024/01/04 04:13:57;;;;;;;0.50;0.50;;;7.10;99.90;;;;;;5073640;28;20184;-82
2024/01/04 04:16:23;;;;;;;0.20;0.17;;;7.00;99.90;;;;;;5074610;28;20173;-82
2024/01/04 04:18:49;;;;;;;0.20;0.20;;;6.90;99.90;;;;;;5073246;28;20193;-83
2024/01/04 04:21:21;;;;;;;0.83;0.30;;;6.90;99.90;;;;;;5073310;28;20177;-82
2024/01/04 04:23:49;;;;;;;0.40;0.40;;;6.90;99.90;;;;;;5073014;28;20664;-82
2024/01/04 04:26:19;;;;;;;1.07;0.20;;;6.90;99.90;;;;;;5074476;28;20285;-82
2024/01/04 04:28:44;;;;;;;0.73;0.30;;;6.80;99.90;;;;;;5074402;28;20207;-81
2024/01/04 04:31:14;;;;;;;1.10;0.40;;;6.70;99.90;;;;;;5074232;28;20173;-82
2024/01/04 04:33:40;;;;;;;0.70;0.30;;;6.70;99.90;;;;;;5073097;28;20188;-82
2024/01/04 04:36:06;;;;;;;1.20;0.50;;;6.70;99.90;;;;;;5072778;28;20177;-82
2024/01/04 04:38:33;;;;;;;1.20;0.37;;;6.70;99.90;;;;;;5127035;23;20228;-80
2024/01/04 04:40:59;;;;;;;0.33;0.33;;;6.70;99.90;;;;;;5072930;28;20165;-81
2024/01/04 04:43:25;;;;;;;1.40;0.40;;;6.70;99.90;;;;;;5074414;28;20231;-81
2024/01/04 04:45:50;;;;;;;0.30;0.30;;;6.70;99.90;;;;;;5074159;28;20193;-81
2024/01/04 04:48:16;;;;;;;0.97;0.40;;;6.70;99.90;;;;;;5074215;28;20196;-81
2024/01/04 04:50:41;;;;;;;0.63;0.40;;;6.70;99.90;;;;;;5072875;28;20672;-82
2024/01/04 04:53:07;;;;;;;0.90;0.43;;;6.80;99.90;;;;;;5073173;28;20617;-80
2024/01/04 04:55:33;;;;;;;0.50;0.40;;;6.80;99.90;;;;;;5073090;28;20542;-80
2024/01/04 04:57:59;;;;;;;1.07;0.60;;;6.90;99.90;;;;;;5073955;28;20173;-83
2024/01/04 05:00:24;;;;;;;0.87;0.60;;;6.90;99.90;;;;;;5072568;28;20188;-83
2024/01/04 05:02:50;;;;;;;0.93;0.67;;;6.90;99.90;;;;;;5072580;28;20218;-83
2024/01/04 05:05:16;;;;;;;0.40;0.40;;;6.90;99.90;;;;;;5073703;28;20251;-82
2024/01/04 05:07:41;;;;;;;0.30;0.30;;;6.90;99.90;;;;;;5072665;28;20543;-83
2024/01/04 05:10:07;;;;;;;0.90;0.30;;;7.00;99.90;;;;;;5072491;28;20200;-83
2024/01/04 05:12:33;;;;;;;1.00;0.53;;;6.90;99.90;;;;;;5073469;28;20169;-83
2024/01/04 05:14:59;;;;;;;0.63;0.50;;;6.90;99.90;;;;;;5073689;28;20201;-83
2024/01/04 05:17:25;;;;;;;0.90;0.50;;;7.00;99.90;;;;;;5073574;28;20199;-83
2024/01/04 05:19:50;;;;;;;0.50;0.50;;;7.00;99.90;;;;;;5073547;28;20217;-82
2024/01/04 05:22:17;;;;;;;0.50;0.50;;;7.00;99.90;;;;;;5073520;28;20199;-83
2024/01/04 05:24:42;;;;;;;1.40;0.47;;;7.00;99.90;;;;;;5072145;28;20553;-83
2024/01/04 05:27:08;;;;;;;0.60;0.50;;;6.90;99.90;;;;;;5072173;28;20184;-83
2024/01/04 05:29:33;;;;;;;0.90;0.57;;;7.00;99.90;;;;;;5073258;28;20196;-83
2024/01/04 05:31:59;;;;;;;0.40;0.40;;;7.00;99.90;;;;;;5072021;28;20165;-83
2024/01/04 05:34:25;;;;;;;0.60;0.60;;;7.00;99.90;;;;;;5073354;28;20664;-84
2024/01/04 05:36:51;;;;;;;0.73;0.50;;;7.00;99.90;;;;;;5073301;28;20237;-83
2024/01/04 05:39:17;;;;;;;1.80;0.50;;;7.00;99.90;;;;;;5071695;28;20205;-84
2024/01/04 05:41:42;;;;;;;1.17;0.60;;;7.00;99.90;;;;;;5071827;28;20195;-83
2024/01/04 05:44:08;;;;;;;0.50;0.50;;;7.00;99.90;;;;;;5071978;28;20172;-83
2024/01/04 05:46:33;;;;;;;0.53;0.53;;;7.00;99.90;;;;;;5072891;28;20205;-82
2024/01/04 05:49:00;;;;;;;0.53;0.50;;;7.00;99.90;;;;;;5072824;28;20580;-85
2024/01/04 05:51:26;;;;;;;0.60;0.60;;;7.00;99.90;;;;;;5071510;28;20230;-83
2024/01/04 05:53:51;;;;;;;0.60;0.60;;;7.00;99.90;;;;;;5071582;28;20173;-85
2024/01/04 05:56:17;;;;;;;0.60;0.60;;;7.00;99.90;;;;;;5071473;28;20220;-82
2024/01/04 05:58:43;;;;;;;0.40;0.40;;;7.10;99.90;;;;;;5071475;28;20222;-83
2024/01/04 06:01:09;;;;;;;0.50;0.50;;;7.00;99.90;;;;;;5072692;28;20319;-83
2024/01/04 06:03:34;;;;;;;0.63;0.50;;;7.00;99.90;;;;;;5071413;28;20711;-83
2024/01/04 06:06:00;;;;;;;0.30;0.30;;;7.00;99.90;;;;;;5071343;28;20208;-82
2024/01/04 06:08:25;;;;;;;0.40;0.40;;;7.00;99.90;;;;;;5071407;28;20203;-82
2024/01/04 06:10:51;;;;;;;1.03;0.60;;;7.00;99.90;;;;;;5072640;28;20181;-83
2024/01/04 06:13:18;;;;;;;0.80;0.70;;;7.00;99.90;;;;;;5071571;28;20173;-82
2024/01/04 06:15:45;;;;;;;0.67;0.60;;;7.10;99.90;;;;;;5071474;28;20177;-85
2024/01/04 06:18:11;;;;;;;0.40;0.40;;;7.10;99.90;;;;;;5072448;28;20217;-84
2024/01/04 06:20:38;;;;;;;1.43;0.80;;;7.00;99.90;;;;;;5072478;28;20227;-85
2024/01/04 06:23:04;;;;;;;0.70;0.70;;;7.00;99.90;;;;;;5070534;28;20230;-86
2024/01/04 06:25:30;;;;;;;0.67;0.67;;;7.10;99.90;;;;;;5070967;28;20201;-84
2024/01/04 06:27:56;;;;;;;0.87;0.67;;;7.10;99.90;;;;;;5070976;28;20264;-84
2024/01/04 06:30:22;;;;;;;0.77;0.77;;;7.20;99.90;;;;;;5072090;28;20680;-87
2024/01/04 06:32:47;;;;;;;2.00;0.80;;;7.20;99.90;;;;;;5070848;28;20169;-85
2024/01/04 06:35:13;;;;;;;0.90;0.80;;;7.20;99.90;;;;;;5071157;28;20724;-85
2024/01/04 06:37:39;;;;;;;1.10;0.90;;;7.30;99.90;;;;;;5071371;28;20607;-86
2024/01/04 06:40:07;;;;;;;1.93;1.00;;;7.20;99.90;;;;;;5070566;28;20300;-83
2024/01/04 06:42:33;;;;;;;1.50;0.87;;;7.20;99.90;;;;;;5071997;28;20174;-84
2024/01/04 06:44:58;;;;;;;2.17;0.97;;;7.20;99.90;;;;;;5071797;28;20196;-86
2024/01/04 06:47:24;;;;;;;1.20;1.10;;;7.10;99.90;;;;;;5071001;28;20185;-84
2024/01/04 06:49:50;;;;;;;2.20;1.17;;;7.10;99.90;;;;;;5071977;28;20213;-82
2024/01/04 06:52:15;;;;;;;0.83;0.80;;;7.10;99.90;;;;;;5070717;28;20169;-83
2024/01/04 06:54:41;;;;;;;1.07;0.90;;;7.10;99.90;;;;;;5071802;28;20226;-86
2024/01/04 06:57:06;;;;;;;1.83;1.00;;;7.10;99.90;;;;;;5070749;28;20180;-83
2024/01/04 06:59:34;;;;;;;1.10;1.00;;;7.10;99.90;;;;;;5071654;28;20681;-83
2024/01/04 07:01:59;;;;;;;1.10;1.00;;;7.10;99.90;;;;;;5071877;28;20197;-85
2024/01/04 07:04:25;;;;;;;1.03;1.00;;;7.10;99.90;;;;;;5071834;28;20212;-84
2024/01/04 07:06:50;;;;;;;1.67;1.00;;;7.10;99.90;;;;;;5070640;28;20250;-84
2024/01/04 07:09:17;;;;;;;1.47;1.10;;;7.00;99.90;;;;;;5071789;28;20192;-84
2024/01/04 07:11:42;;;;;;;1.67;1.00;;;7.10;99.90;;;;;;5071496;28;20584;-84
2024/01/04 07:14:09;;;;;;;1.83;1.00;;;7.10;99.90;;;;;;5071733;28;20177;-84
2024/01/04 07:16:45;;;;;;;0.97;0.97;;;7.10;99.90;;;;;;5071596;28;20714;-84
2024/01/04 07:19:10;;;;;;;1.03;0.80;;;7.00;99.90;;;;;;5071811;28;20220;-84
2024/01/04 07:21:36;;;;;;;1.43;1.13;;;7.00;99.90;;;;;;5071593;28;20200;-83
2024/01/04 07:24:02;;;;;;;1.60;1.13;;;7.10;99.90;;;;;;5070349;28;20188;-83
2024/01/04 07:26:28;;;;;;;1.57;1.20;;;7.10;99.90;;;;;;5070388;28;20206;-84
2024/01/04 07:28:53;;;;;;;1.20;1.10;;;7.10;99.90;;;;;;5071493;28;20194;-84
2024/01/04 07:31:19;;;;;;;2.03;1.20;;;7.20;99.90;;;;;;5071981;28;20169;-81
2024/01/04 07:33:44;;;;;;;1.10;1.00;;;7.10;99.90;;;;;;5070365;28;20180;-86
2024/01/04 07:36:10;;;;;;;1.10;1.00;;;7.00;99.90;;;;;;5074262;28;20226;-86
2024/01/04 07:38:35;;;;;;;1.50;1.07;;;7.00;99.90;;;;;;5073935;28;20214;-86
2024/01/04 07:41:03;;;;;;;1.10;1.00;;;6.90;99.90;;;;;;5064762;28;20185;-86
2024/01/04 07:43:29;;;;;;;1.43;1.00;;;7.00;99.90;;;;;;5068132;28;20181;-86
2024/01/04 07:45:54;;;;;;;2.57;1.37;;;6.90;99.90;;;;;;5073359;28;20206;-88
2024/01/04 07:48:21;;;;;;;1.93;1.10;;;6.90;99.90;;;;;;5073900;28;20197;-88
2024/01/04 07:50:46;;;;;;;1.60;1.00;;;6.90;99.90;;;;;;5073307;28;20173;-86
2024/01/04 07:53:12;;;;;;;2.03;1.07;;;6.90;99.90;;;;;;5073991;28;20185;-86
2024/01/04 07:55:38;;;;;;;1.30;1.00;;;6.90;99.90;;;;;;5075021;28;20181;-86
2024/01/04 07:58:04;;;;;;;0.90;0.80;;;6.90;99.90;;;;;;5073531;28;20196;-86
2024/01/04 08:00:29;;;;;;;1.83;0.90;;;7.00;99.90;;;;;;5075013;28;20212;-87
2024/01/04 08:02:55;;;;;;;0.83;0.80;;;7.00;99.90;;;;;;5074987;28;20230;-87
2024/01/04 08:05:21;;;;;;;1.93;1.10;;;7.00;99.90;;;;;;5074883;28;20207;-85
2024/01/04 08:07:46;;;;;;;1.43;0.80;;;7.00;99.90;;;;;;5073554;28;20178;-86
2024/01/04 08:10:12;;;;;;;1.17;0.80;;;7.00;99.90;;;;;;5073338;28;20196;-86
2024/01/04 08:12:41;;;;;;;1.30;1.10;;;6.90;99.90;;;;;;5074609;28;20251;-86
2024/01/04 08:15:08;;;;;;;1.07;0.80;;;6.90;99.90;;;;;;5073719;28;20177;-86
2024/01/04 08:17:35;;;;;;;1.03;0.67;;;6.90;99.90;;;;;;5074780;28;20195;-86
2024/01/04 08:20:01;;;;;;;0.80;0.80;;;6.90;99.90;;;;;;5074372;28;20188;-86
2024/01/04 08:22:26;;;;;;;0.77;0.73;;;6.80;99.90;;;;;;5073336;28;20176;-86
2024/01/04 08:24:52;;;;;;;1.30;0.70;;;6.80;99.90;;;;;;5073166;28;20212;-86
2024/01/04 08:27:19;;;;;;;0.60;0.60;;;6.80;99.90;;;;;;5073196;28;20176;-87
2024/01/04 08:29:48;;;;;;;1.43;0.80;;;6.80;99.90;;;;;;5073354;28;20193;-86
2024/01/04 08:32:14;;;;;;;0.77;0.70;;;6.80;99.90;;;;;;5074293;28;20211;-87
2024/01/04 08:34:40;;;;;;;1.00;0.80;;;6.80;99.90;;;;;;5072980;28;20170;-87
2024/01/04 08:37:05;;;;;;;1.00;0.70;;;6.90;99.90;;;;;;5073138;28;20627;-86
2024/01/04 08:39:31;;;;;;;0.70;0.70;;;6.80;99.90;;;;;;5074056;28;20260;-86
2024/01/04 08:41:58;;;;;;;0.70;0.70;;;6.80;99.90;;;;;;5072920;28;20699;-86
2024/01/04 08:44:23;;;;;;;1.40;0.73;;;6.80;99.90;;;;;;5073057;28;20169;-86
2024/01/04 08:46:50;;;;;;;0.77;0.77;;;6.90;99.90;;;;;;5073454;28;20208;-86
2024/01/04 08:49:16;;;;;;;1.03;0.73;;;6.80;99.90;;;;;;5072695;28;20240;-86
2024/01/04 08:51:42;;;;;;;1.00;0.80;;;6.80;99.90;;;;;;5073931;28;20172;-88
2024/01/04 08:54:07;;;;;;;0.93;0.80;;;6.90;99.90;;;;;;5072694;28;20173;-86
2024/01/04 08:56:33;;;;;;;0.67;0.60;;;6.90;99.90;;;;;;5072703;28;20310;-86
2024/01/04 08:59:00;;;;;;;1.00;0.70;;;6.90;99.90;;;;;;5073935;28;20204;-86
2024/01/04 09:01:25;;;;;;;1.83;1.10;;;6.90;99.90;;;;;;5073687;28;20222;-86
2024/01/04 09:03:52;;;;;;;4.93;2.97;;;6.90;99.90;;;;;;5072670;28;20172;-86
2024/01/04 09:06:18;;;;;;;7.13;3.87;;;6.90;99.90;;;;;;5072571;28;20232;-86
2024/01/04 09:08:43;;;;;;;8.53;4.47;;;6.90;99.90;;;;;;5072289;28;20220;-86
2024/01/04 09:11:09;;;;;;;6.60;3.57;;;6.80;99.90;;;;;;5072499;28;20173;-86
2024/01/04 09:13:35;;;;;;;3.97;2.70;;;6.90;99.90;;;;;;5072324;28;20376;-86
2024/01/04 09:16:00;;;;;;;6.70;3.77;;;6.80;99.90;;;;;;5072261;28;20173;-86
2024/01/04 09:18:26;;;;;;;5.90;3.53;;;6.80;99.90;;;;;;5072248;28;20222;-86
2024/01/04 09:20:52;;;;;;;7.87;4.53;;;6.80;99.90;;;;;;5072083;28;20200;-87
2024/01/04 09:23:17;;;;;;;9.83;5.27;;;6.80;99.90;;;;;;5073498;28;20177;-87
2024/01/04 09:25:43;;;;;;;6.43;4.03;;;6.80;99.90;;;;;;5068148;28;20205;-86
2024/01/04 09:28:08;;;;;;;5.33;3.17;;;6.90;99.90;;;;;;5052283;28;20296;-86
2024/01/04 09:30:34;;;;;;;5.60;3.80;;;6.90;99.90;;;;;;5068234;28;20205;-86
2024/01/04 09:33:00;;;;;;;10.30;7.27;;;6.90;99.90;;;;;;5072833;28;20177;-86
2024/01/04 09:35:26;;;;;;;2.97;2.40;;;6.90;99.90;;;;;;5071565;28;20185;-86
2024/01/04 09:37:51;;;;;;;5.50;3.60;;;6.80;99.90;;;;;;5071723;28;20200;-88
2024/01/04 09:40:19;;;;;;;3.70;3.20;;;6.80;99.90;;;;;;5072990;28;20208;-88
2024/01/04 09:42:44;;;;;;;3.97;2.00;;;6.90;99.90;;;;;;5072209;28;20654;-81
2024/01/04 09:45:13;;;;;;;3.37;2.50;;;6.80;99.90;;;;;;5072658;28;20745;-84
2024/01/04 09:47:42;;;;;;;5.50;3.17;;;6.80;99.90;;;;;;5071607;28;20192;-82
2024/01/04 09:50:12;;;;;;;2.87;1.83;;;6.90;99.90;;;;;;5071339;28;20681;-84
2024/01/04 09:52:44;;;;;;;2.43;1.70;;;6.90;99.90;;;;;;5071650;28;20174;-81
2024/01/04 09:55:11;;;;;;;2.20;1.50;;;7.00;99.90;;;;;;5072553;28;20222;-85
2024/01/04 09:57:37;;;;;;;1.20;1.10;;;7.00;99.90;;;;;;5071694;28;20188;-83
2024/01/04 10:00:04;;;;;;;1.67;1.37;;;7.00;99.90;;;;;;5071382;28;20192;-83
2024/01/04 10:02:32;;;;;;;2.10;1.50;;;7.00;99.90;;;;;;5072550;28;20184;-82
2024/01/04 10:04:59;;;;;;;1.10;0.80;;;7.00;99.90;;;;;;5072562;28;20207;-83
2024/01/04 10:07:32;;;;;;;1.40;1.30;;;7.00;99.90;;;;;;5072532;28;20191;-85
2024/01/04 10:10:15;;;;;;;1.97;1.00;;;7.00;99.90;;;;;;5071164;28;20223;-83
2024/01/04 10:12:42;;;;;;;2.47;1.50;;;7.00;99.90;;;;;;5072388;28;20633;-84
2024/01/04 10:15:11;;;;;;;1.30;1.20;;;7.00;99.90;;;;;;5070771;28;20192;-83
2024/01/04 10:17:38;;;;;;;0.90;0.90;;;7.00;99.90;;;;;;5070042;28;20192;-85
2024/01/04 10:20:05;;;;;;;1.07;1.00;;;7.00;99.90;;;;;;5071918;28;20200;-83
2024/01/04 10:22:30;;;;;;;1.73;1.10;;;7.10;99.90;;;;;;5067868;28;20219;-83
2024/01/04 10:25:09;;;;;;;1.13;1.00;;;7.10;99.90;;;;;;5070411;28;20200;-83
2024/01/04 10:27:36;;;;;;;1.40;1.20;;;7.10;99.90;;;;;;5072205;28;20650;-83
2024/01/04 10:30:06;;;;;;;2.40;0.90;;;7.00;99.90;;;;;;5071737;28;20755;-83
2024/01/04 10:32:32;;;;;;;1.77;1.43;;;7.10;99.90;;;;;;5070940;28;20587;-83
2024/01/04 10:35:08;;;;;;;3.23;1.20;;;7.10;99.90;;;;;;5060237;28;20630;-83
2024/01/04 10:37:34;;;;;;;1.17;1.07;;;7.10;99.90;;;;;;5068020;28;20287;-83
2024/01/04 10:40:03;;;;;;;1.57;1.07;;;7.10;99.90;;;;;;5066383;22;20284;-80
2024/01/04 10:42:29;;;;;;;1.57;0.90;;;7.20;99.90;;;;;;4947281;28;20668;-80
2024/01/04 10:44:55;;;;;;;1.20;1.10;;;7.10;99.90;;;;;;4982083;28;20245;-80
2024/01/04 10:47:21;;;;;;;1.00;0.90;;;7.20;99.90;;;;;;4988245;28;20246;-79
2024/01/04 10:49:48;;;;;;;2.00;1.03;;;7.20;99.90;;;;;;4947318;28;20211;-80
2024/01/04 10:52:16;;;;;;;1.90;1.20;;;7.20;99.90;;;;;;4968513;28;20200;-80
2024/01/04 10:54:42;;;;;;;1.00;0.90;;;7.20;99.90;;;;;;4932730;29;20183;-81
2024/01/04 10:57:09;;;;;;;2.00;0.90;;;7.20;99.90;;;;;;4931360;29;20177;-81
2024/01/04 10:59:35;;;;;;;1.23;0.73;;;7.20;99.90;;;;;;4931421;29;20659;-83
2024/01/04 11:02:02;;;;;;;1.13;1.00;;;7.30;99.90;;;;;;4931139;29;20667;-83
2024/01/04 11:04:30;;;;;;;4.40;3.00;;;7.20;99.90;;;;;;4932314;29;20261;-88
2024/01/04 11:06:57;;;;;;;21.03;11.67;;;7.30;99.90;;;;;;4932025;29;20335;-86
2024/01/04 11:09:24;;;;;;;1.90;1.70;;;7.70;99.90;;;;;;4932788;29;20297;-86
2024/01/04 11:11:54;;;;;;;3.23;1.97;;;8.00;99.90;;;;;;4934241;29;20569;-86
2024/01/04 11:14:21;;;;;;;2.63;1.60;;;8.30;99.90;;;;;;4934069;29;20253;-85
2024/01/04 11:16:55;;;;;;;1.80;1.30;;;8.40;99.90;;;;;;4934197;29;20187;-87
2024/01/04 11:19:33;;;;;;;3.57;2.17;;;8.50;99.90;;;;;;4934468;29;20198;-87
2024/01/04 11:22:11;;;;;;;2.80;1.80;;;8.60;99.90;;;;;;4935112;29;20192;-87
2024/01/04 11:24:59;;;;;;;10.47;6.13;;;8.70;99.90;;;;;;4934417;29;20227;-85
2024/01/04 11:27:27;;;;;;;8.87;5.47;;;8.50;99.90;;;;;;4934215;29;20653;-82
2024/01/04 11:29:53;;;;;;;1.23;0.90;;;8.30;99.90;;;;;;4933985;29;20731;-83
2024/01/04 11:32:19;;;;;;;1.20;0.93;;;8.00;99.90;;;;;;4935600;29;20236;-84
2024/01/04 11:34:45;;;;;;;1.07;0.90;;;7.70;99.90;;;;;;4934183;29;20227;-82
2024/01/04 11:37:15;;;;;;;1.00;0.60;;;7.60;99.90;;;;;;4934599;29;20189;-87
2024/01/04 11:40:00;;;;;;;0.70;0.70;;;7.50;99.90;;;;;;4921638;28;20225;-84
2024/01/04 11:42:38;;;;;;;0.80;0.70;;;7.50;99.90;;;;;;4971178;28;20179;-84
2024/01/04 11:45:05;;;;;;;2.13;1.23;;;7.40;99.90;;;;;;4934063;29;20277;-84
2024/01/04 11:47:43;;;;;;;1.20;0.80;;;7.40;99.90;;;;;;4934135;29;20214;-85
2024/01/04 11:50:16;;;;;;;1.20;0.80;;;7.30;99.90;;;;;;4933490;29;20231;-85
2024/01/04 11:52:45;;;;;;;1.03;0.70;;;7.40;99.90;;;;;;4933818;29;20188;-85
2024/01/04 11:55:21;;;;;;;1.07;0.70;;;7.40;99.90;;;;;;4933880;29;20216;-85
2024/01/04 11:57:47;;;;;;;1.00;0.90;;;7.40;99.90;;;;;;4933931;29;20196;-84
2024/01/04 12:00:14;;;;;;;1.47;1.30;;;7.40;99.90;;;;;;4934640;29;20202;-84
2024/01/04 12:02:40;;;;;;;1.17;0.80;;;7.40;99.90;;;;;;4934926;29;20647;-83
2024/01/04 12:05:06;;;;;;;5.43;3.63;;;7.40;99.90;;;;;;4933605;29;20206;-84
2024/01/04 12:07:34;;;;;;;4.10;2.10;;;7.40;99.90;;;;;;4934926;29;20181;-85
2024/01/04 12:10:00;;;;;;;1.70;1.20;;;7.30;99.90;;;;;;4934631;29;20207;-84
2024/01/04 12:12:26;;;;;;;1.30;1.20;;;7.30;99.90;;;;;;4935053;29;20182;-84
2024/01/04 12:14:52;;;;;;;2.80;1.47;;;7.30;99.90;;;;;;4934973;29;20226;-84
2024/01/04 12:17:18;;;;;;;3.33;2.40;;;7.30;99.90;;;;;;4934546;29;20265;-85
2024/01/04 12:19:43;;;;;;;2.97;1.90;;;7.20;99.90;;;;;;4934517;29;20207;-84
2024/01/04 12:22:10;;;;;;;1.60;1.20;;;7.20;99.90;;;;;;4932153;29;20182;-85
2024/01/04 12:24:38;;;;;;;1.87;1.57;;;7.20;99.90;;;;;;4934449;29;20185;-85
2024/01/04 12:27:04;;;;;;;5.07;3.50;;;7.20;99.90;;;;;;4934493;29;20207;-85
2024/01/04 12:29:29;;;;;;;1.30;1.00;;;7.20;99.90;;;;;;4933218;29;20204;-85
2024/01/04 12:31:55;;;;;;;2.00;1.80;;;7.20;99.90;;;;;;4934536;29;20192;-84
2024/01/04 12:34:21;;;;;;;2.67;1.77;;;7.20;99.90;;;;;;4933081;29;20172;-84
2024/01/04 12:36:47;;;;;;;1.53;0.90;;;7.20;99.90;;;;;;4933115;29;20232;-84
2024/01/04 12:39:13;;;;;;;1.20;1.10;;;7.30;99.90;;;;;;4932890;29;20221;-86
2024/01/04 12:41:42;;;;;;;1.00;1.00;;;7.20;99.90;;;;;;4934409;29;20210;-84
2024/01/04 12:44:07;;;;;;;1.20;1.10;;;7.20;99.90;;;;;;4933277;29;20182;-84
2024/01/04 12:46:33;;;;;;;1.33;1.23;;;7.20;99.90;;;;;;4934196;29;20209;-83
2024/01/04 12:49:12;;;;;;;4.97;2.50;;;7.20;99.90;;;;;;4933072;29;20194;-83
2024/01/04 12:51:40;;;;;;;2.00;1.73;;;7.30;99.90;;;;;;4933811;29;20201;-82
2024/01/04 12:54:07;;;;;;;1.33;1.20;;;7.30;99.90;;;;;;4934027;29;20258;-82